createdAt,value
2022-11-28T00:01:53.858Z,6.43
2022-11-28T00:04:22.085Z,6.07
2022-11-28T00:06:50.636Z,7.13
2022-11-28T00:09:21.481Z,5.73
2022-11-28T00:11:50.639Z,7.17
2022-11-28T00:14:21.252Z,8.00
2022-11-28T00:16:49.649Z,4.77
2022-11-28T00:19:18.048Z,8.57
2022-11-28T00:21:46.212Z,6.70
2022-11-28T00:24:14.456Z,8.10
2022-11-28T00:26:43.108Z,8.40
2022-11-28T00:29:11.966Z,7.00
2022-11-28T00:31:43.914Z,7.83
2022-11-28T00:34:14.722Z,8.37
2022-11-28T00:36:45.300Z,6.53
2022-11-28T00:39:13.725Z,7.63
2022-11-28T00:41:42.235Z,8.67
2022-11-28T00:44:10.770Z,7.53
2022-11-28T00:46:39.048Z,8.67
2022-11-28T00:49:08.621Z,7.03
2022-11-28T00:51:38.267Z,7.63
2022-11-28T00:54:10.108Z,9.00
2022-11-28T00:56:40.184Z,6.30
2022-11-28T00:59:08.445Z,7.80
2022-11-28T01:01:41.357Z,7.07
2022-11-28T01:04:14.898Z,11.23
2022-11-28T01:06:45.111Z,6.80
2022-11-28T01:09:15.320Z,7.10
2022-11-28T01:11:44.813Z,10.07
2022-11-28T01:14:14.225Z,9.07
2022-11-28T01:16:42.859Z,8.67
2022-11-28T01:19:13.884Z,9.03
2022-11-28T01:21:42.083Z,7.10
2022-11-28T01:24:10.762Z,7.50
2022-11-28T01:26:40.557Z,9.13
2022-11-28T01:29:09.701Z,8.47
2022-11-28T01:31:38.336Z,10.67
2022-11-28T01:34:06.794Z,8.77
2022-11-28T01:36:36.332Z,6.97
2022-11-28T01:39:05.484Z,8.10
2022-11-28T01:41:33.744Z,10.33
2022-11-28T01:44:06.583Z,9.43
2022-11-28T01:46:36.173Z,7.40
2022-11-28T01:49:08.981Z,8.20
2022-11-28T01:51:40.388Z,9.10
2022-11-28T01:54:08.997Z,7.93
2022-11-28T01:56:44.294Z,1999.90
2022-11-28T01:59:13.351Z,1999.90
2022-11-28T02:01:42.012Z,1999.90
2022-11-28T02:04:10.834Z,1999.90
2022-11-28T02:06:44.208Z,1999.90
2022-11-28T02:09:14.572Z,1999.90
2022-11-28T02:12:11.038Z,1999.90
2022-11-28T02:15:08.553Z,1999.90
2022-11-28T02:17:52.911Z,1999.90
2022-11-28T02:20:41.073Z,1999.90
2022-11-28T02:23:19.345Z,1999.90
2022-11-28T02:26:18.724Z,1999.90
2022-11-28T02:29:15.506Z,1999.90
2022-11-28T02:32:10.822Z,1999.90
2022-11-28T02:34:47.343Z,1999.90
2022-11-28T02:37:22.221Z,1999.90
2022-11-28T02:40:00.695Z,1999.90
2022-11-28T02:42:42.627Z,1999.90
2022-11-28T02:45:14.026Z,1999.90
2022-11-28T02:47:49.823Z,1999.90
2022-11-28T02:50:23.267Z,1999.90
2022-11-28T02:52:54.831Z,1999.90
2022-11-28T02:55:24.469Z,1999.90
2022-11-28T02:57:54.886Z,1999.90
2022-11-28T03:00:32.048Z,1999.90
2022-11-28T03:03:29.342Z,1999.90
2022-11-28T03:06:01.539Z,1999.90
2022-11-28T03:08:43.343Z,1999.90
2022-11-28T03:11:22.652Z,1999.90
2022-11-28T03:13:57.591Z,11.53
2022-11-28T03:16:30.175Z,9.40
2022-11-28T03:19:11.206Z,10.40
2022-11-28T03:21:44.437Z,11.83
2022-11-28T03:24:18.988Z,12.63
2022-11-28T03:26:56.417Z,10.00
2022-11-28T03:29:33.049Z,10.60
2022-11-28T03:32:08.022Z,10.30
2022-11-28T03:34:45.317Z,9.03
2022-11-28T03:37:16.685Z,11.57
2022-11-28T03:39:49.462Z,10.07
2022-11-28T03:42:22.338Z,10.77
2022-11-28T03:44:57.018Z,10.70
2022-11-28T03:47:30.591Z,10.83
2022-11-28T03:50:06.057Z,9.37
2022-11-28T03:52:38.040Z,9.50
2022-11-28T03:55:12.607Z,11.17
2022-11-28T03:57:46.363Z,14.60
2022-11-28T04:00:15.845Z,9.83
2022-11-28T04:02:55.484Z,10.57
2022-11-28T04:05:33.882Z,10.00
2022-11-28T04:08:09.002Z,10.87
2022-11-28T04:10:43.144Z,10.00
2022-11-28T04:13:19.421Z,12.90
2022-11-28T04:15:55.603Z,12.47
2022-11-28T04:18:28.796Z,13.27
2022-11-28T04:21:04.349Z,12.23
2022-11-28T04:23:35.373Z,14.67
2022-11-28T04:26:10.134Z,13.87
2022-11-28T04:28:42.407Z,12.03
2022-11-28T04:31:17.074Z,13.60
2022-11-28T04:34:01.622Z,15.93
2022-11-28T04:36:36.457Z,15.37
2022-11-28T04:39:09.724Z,15.57
2022-11-28T04:41:43.192Z,15.93
2022-11-28T04:44:16.997Z,16.73
2022-11-28T04:46:49.659Z,16.77
2022-11-28T04:49:17.932Z,14.63
2022-11-28T04:51:53.460Z,18.07
2022-11-28T04:54:25.932Z,15.60
2022-11-28T04:57:00.822Z,17.03
2022-11-28T04:59:32.067Z,22.80
2022-11-28T05:02:05.136Z,19.67
2022-11-28T05:04:36.680Z,21.10
2022-11-28T05:07:08.373Z,17.03
2022-11-28T05:09:37.050Z,18.77
2022-11-28T05:12:05.792Z,18.87
2022-11-28T05:14:34.008Z,14.43
2022-11-28T05:17:02.176Z,16.80
2022-11-28T05:19:30.355Z,16.73
2022-11-28T05:21:58.497Z,18.50
2022-11-28T05:24:32.092Z,19.80
2022-11-28T05:27:00.778Z,17.50
2022-11-28T05:29:29.109Z,20.07
2022-11-28T05:31:57.396Z,16.40
2022-11-28T05:34:25.601Z,22.23
2022-11-28T05:36:53.733Z,20.93
2022-11-28T05:39:26.695Z,19.57
2022-11-28T05:41:57.698Z,22.50
2022-11-28T05:44:27.187Z,22.90
2022-11-28T05:46:55.812Z,19.67
2022-11-28T05:49:25.524Z,25.23
2022-11-28T05:51:56.750Z,24.10
2022-11-28T05:54:33.130Z,22.47
2022-11-28T05:57:03.004Z,23.57
2022-11-28T05:59:31.179Z,26.47
2022-11-28T06:02:02.915Z,21.97
2022-11-28T06:04:34.119Z,24.63
2022-11-28T06:07:07.486Z,27.30
2022-11-28T06:09:35.965Z,25.17
2022-11-28T06:12:05.682Z,22.90
2022-11-28T06:14:36.216Z,27.50
2022-11-28T06:17:11.708Z,22.63
2022-11-28T06:19:41.761Z,24.30
2022-11-28T06:22:10.938Z,26.17
2022-11-28T06:24:39.065Z,26.53
2022-11-28T06:27:08.771Z,30.97
2022-11-28T06:29:36.981Z,24.87
2022-11-28T06:32:05.660Z,25.57
2022-11-28T06:34:37.404Z,26.03
2022-11-28T06:37:05.796Z,29.90
2022-11-28T06:39:33.956Z,26.13
2022-11-28T06:42:06.014Z,28.70
2022-11-28T06:44:35.578Z,29.03
2022-11-28T06:47:05.300Z,28.43
2022-11-28T06:49:35.754Z,28.97
2022-11-28T06:52:09.198Z,30.87
2022-11-28T06:54:37.370Z,27.63
2022-11-28T06:57:05.989Z,29.73
2022-11-28T06:59:35.509Z,25.00
2022-11-28T07:02:07.478Z,30.53
2022-11-28T07:04:36.391Z,28.13
2022-11-28T07:07:05.076Z,29.60
2022-11-28T07:09:33.725Z,29.03
2022-11-28T07:12:01.852Z,25.13
2022-11-28T07:14:30.043Z,28.13
2022-11-28T07:16:59.624Z,30.63
2022-11-28T07:19:28.350Z,29.20
2022-11-28T07:21:56.496Z,29.13
2022-11-28T07:24:24.678Z,28.70
2022-11-28T07:26:54.514Z,29.27
2022-11-28T07:29:27.477Z,26.37
2022-11-28T07:31:55.791Z,28.20
2022-11-28T07:34:25.774Z,29.50
2022-11-28T07:36:55.578Z,27.10
2022-11-28T07:39:30.001Z,28.50
2022-11-28T07:42:06.850Z,27.93
2022-11-28T07:44:37.412Z,25.73
2022-11-28T07:47:06.401Z,27.00
2022-11-28T07:49:36.140Z,24.17
2022-11-28T07:52:04.861Z,24.67
2022-11-28T07:54:33.036Z,25.47
2022-11-28T07:57:16.425Z,23.07
2022-11-28T07:59:44.888Z,24.63
2022-11-28T08:02:13.415Z,24.37
2022-11-28T08:04:49.366Z,30.10
2022-11-28T08:07:20.231Z,26.27
2022-11-28T08:09:48.756Z,25.03
2022-11-28T08:12:17.059Z,23.03
2022-11-28T08:14:45.347Z,24.83
2022-11-28T08:17:13.748Z,25.17
2022-11-28T08:19:43.324Z,26.80
2022-11-28T08:22:11.510Z,28.40
2022-11-28T08:24:40.064Z,26.90
2022-11-28T08:27:08.768Z,25.93
2022-11-28T08:29:37.742Z,26.63
2022-11-28T08:32:06.319Z,26.97
2022-11-28T08:34:34.479Z,30.10
2022-11-28T08:37:04.059Z,29.10
2022-11-28T08:39:32.672Z,26.27
2022-11-28T08:42:01.010Z,36.47
2022-11-28T08:44:30.750Z,28.13
2022-11-28T08:47:00.479Z,30.40
2022-11-28T08:49:28.829Z,27.83
2022-11-28T08:51:57.042Z,22.97
2022-11-28T08:54:26.881Z,30.07
2022-11-28T08:56:55.069Z,29.37
2022-11-28T08:59:23.379Z,24.73
2022-11-28T09:01:53.578Z,31.13
2022-11-28T09:04:21.882Z,27.97
2022-11-28T09:06:52.569Z,27.57
2022-11-28T09:09:20.938Z,23.83
2022-11-28T09:11:50.592Z,27.47
2022-11-28T09:14:18.769Z,26.13
2022-11-28T09:16:47.058Z,27.90
2022-11-28T09:19:15.322Z,26.97
2022-11-28T09:21:43.737Z,26.43
2022-11-28T09:24:14.016Z,24.77
2022-11-28T09:26:43.094Z,25.57
2022-11-28T09:29:12.692Z,29.67
2022-11-28T09:31:45.788Z,26.47
2022-11-28T09:34:15.477Z,25.60
2022-11-28T09:36:43.663Z,27.23
2022-11-28T09:39:11.807Z,28.63
2022-11-28T09:41:52.004Z,27.63
2022-11-28T09:44:27.524Z,25.27
2022-11-28T09:47:01.397Z,28.73
2022-11-28T09:49:40.796Z,22.37
2022-11-28T09:52:18.589Z,24.57
2022-11-28T09:54:52.821Z,24.50
2022-11-28T09:57:36.225Z,27.53
2022-11-28T10:00:08.518Z,24.87
2022-11-28T10:02:49.648Z,21.77
2022-11-28T10:05:25.830Z,23.30
2022-11-28T10:08:11.788Z,24.80
2022-11-28T10:10:48.890Z,29.60
2022-11-28T10:13:21.668Z,26.43
2022-11-28T10:15:58.859Z,27.63
2022-11-28T10:18:36.158Z,24.63
2022-11-28T10:21:22.204Z,25.50
2022-11-28T10:23:53.135Z,20.53
2022-11-28T10:26:28.307Z,20.80
2022-11-28T10:28:59.308Z,19.50
2022-11-28T10:31:36.031Z,22.73
2022-11-28T10:34:11.058Z,17.90
2022-11-28T10:36:50.775Z,22.57
2022-11-28T10:39:19.323Z,22.60
2022-11-28T10:42:11.655Z,20.50
2022-11-28T10:44:51.745Z,21.30
2022-11-28T10:47:39.306Z,21.77
2022-11-28T10:50:16.163Z,24.27
2022-11-28T10:52:51.624Z,26.97
2022-11-28T10:55:29.293Z,19.93
2022-11-28T10:58:12.082Z,21.57
2022-11-28T11:00:43.470Z,21.03
2022-11-28T11:03:16.861Z,20.17
2022-11-28T11:05:45.417Z,20.37
2022-11-28T11:08:20.511Z,21.87
2022-11-28T11:10:50.993Z,1999.90
2022-11-28T11:13:22.236Z,23.10
2022-11-28T11:15:58.640Z,18.43
2022-11-28T11:18:31.048Z,21.53
2022-11-28T11:21:16.133Z,21.13
2022-11-28T11:23:47.543Z,16.90
2022-11-28T11:26:23.875Z,19.50
2022-11-28T11:28:56.095Z,17.03
2022-11-28T11:31:28.260Z,21.53
2022-11-28T11:34:10.412Z,19.57
2022-11-28T11:36:39.204Z,21.13
2022-11-28T11:39:22.978Z,21.43
2022-11-28T11:41:53.709Z,19.80
2022-11-28T11:44:29.291Z,23.60
2022-11-28T11:47:00.647Z,101.57
2022-11-28T11:49:32.796Z,18.20
2022-11-28T11:52:03.892Z,20.53
2022-11-28T11:54:32.224Z,18.80
2022-11-28T11:57:30.670Z,43.70
2022-11-28T11:59:53.205Z,15.93
2022-11-28T12:02:28.731Z,15.77
2022-11-28T12:05:04.048Z,25.20
2022-11-28T12:07:41.860Z,20.03
2022-11-28T12:10:13.940Z,19.43
2022-11-28T12:12:42.427Z,22.57
2022-11-28T12:15:19.209Z,21.97
2022-11-28T12:17:59.990Z,17.10
2022-11-28T12:20:55.652Z,19.87
2022-11-28T12:23:41.284Z,23.00
2022-11-28T12:26:15.693Z,21.90
2022-11-28T12:28:55.010Z,22.10
2022-11-28T12:31:29.532Z,20.30
2022-11-28T12:34:06.858Z,18.63
2022-11-28T12:36:44.658Z,17.87
2022-11-28T12:39:21.061Z,20.90
2022-11-28T12:42:20.693Z,19.73
2022-11-28T12:45:13.273Z,16.83
2022-11-28T12:47:48.526Z,24.10
2022-11-28T12:50:27.287Z,26.63
2022-11-28T12:53:10.963Z,22.17
2022-11-28T12:55:49.911Z,19.37
2022-11-28T12:58:23.507Z,19.80
2022-11-28T13:00:59.558Z,21.33
2022-11-28T13:03:41.581Z,18.30
2022-11-28T13:06:24.769Z,21.60
2022-11-28T13:09:15.179Z,23.50
2022-11-28T13:11:57.083Z,23.00
2022-11-28T13:14:33.540Z,19.33
2022-11-28T13:17:12.364Z,23.67
2022-11-28T13:19:47.477Z,18.10
2022-11-28T13:22:23.454Z,66.27
2022-11-28T13:25:00.823Z,565.47
2022-11-28T13:27:37.462Z,283.87
2022-11-28T13:30:18.230Z,58.37
2022-11-28T13:32:52.964Z,733.10
2022-11-28T13:35:21.693Z,1999.90
2022-11-28T13:40:52.061Z,29.37
2022-11-28T13:43:27.187Z,21.87
2022-11-28T13:45:56.449Z,944.17
2022-11-28T13:51:42.012Z,51.50
2022-11-28T13:54:48.673Z,29.90
2022-11-28T13:57:30.795Z,30.97
2022-11-28T14:00:04.706Z,27.93
2022-11-28T14:02:45.710Z,29.37
2022-11-28T14:05:27.108Z,65.03
2022-11-28T14:07:56.778Z,60.40
2022-11-28T14:10:52.207Z,102.40
2022-11-28T14:13:45.238Z,27.97
2022-11-28T14:16:23.807Z,28.23
2022-11-28T14:19:11.004Z,39.70
2022-11-28T14:21:54.020Z,35.67
2022-11-28T14:24:33.800Z,1999.90
2022-11-28T14:27:05.698Z,233.43
2022-11-28T14:29:40.063Z,269.97
2022-11-28T14:32:31.963Z,844.10
2022-11-28T14:35:01.885Z,38.03
2022-11-28T14:37:56.148Z,288.07
2022-11-28T14:41:09.104Z,33.60
2022-11-28T14:43:42.662Z,213.87
2022-11-28T14:46:30.773Z,74.57
2022-11-28T14:49:18.968Z,749.47
2022-11-28T14:52:38.417Z,258.43
2022-11-28T14:55:19.537Z,1608.53
2022-11-28T14:57:59.752Z,133.60
2022-11-28T15:00:31.505Z,1999.90
2022-11-28T15:03:26.340Z,1999.90
2022-11-28T15:05:57.150Z,1999.90
2022-11-28T15:08:38.011Z,274.83
2022-11-28T15:11:20.913Z,26.07
2022-11-28T15:14:03.102Z,24.83
2022-11-28T15:16:33.554Z,251.53
2022-11-28T15:19:08.562Z,26.93
2022-11-28T15:21:46.759Z,29.57
2022-11-28T15:24:25.322Z,30.03
2022-11-28T15:26:57.770Z,103.60
2022-11-28T15:29:28.020Z,27.80
2022-11-28T15:32:03.132Z,30.40
2022-11-28T15:34:41.338Z,30.70
2022-11-28T15:37:18.436Z,23.77
2022-11-28T15:39:49.227Z,31.70
2022-11-28T15:42:23.942Z,172.77
2022-11-28T15:44:57.952Z,30.73
2022-11-28T15:47:28.456Z,77.10
2022-11-28T15:50:03.903Z,283.80
2022-11-28T15:52:33.207Z,34.80
2022-11-28T15:55:01.597Z,55.93
2022-11-28T15:57:32.575Z,100.33
2022-11-28T16:00:03.035Z,65.83
2022-11-28T16:02:43.482Z,1446.30
2022-11-28T16:05:20.834Z,34.07
2022-11-28T16:07:51.866Z,74.57
2022-11-28T16:10:24.796Z,30.80
2022-11-28T16:12:58.030Z,37.60
2022-11-28T16:15:27.759Z,29.83
2022-11-28T16:17:56.849Z,31.17
2022-11-28T16:20:29.113Z,189.90
2022-11-28T16:23:02.640Z,78.97
2022-11-28T16:25:32.583Z,30.70
2022-11-28T16:28:01.303Z,31.07
2022-11-28T16:30:34.842Z,29.03
2022-11-28T16:33:03.837Z,31.33
2022-11-28T16:35:38.811Z,60.87
2022-11-28T16:38:16.061Z,43.60
2022-11-28T16:40:44.883Z,29.30
2022-11-28T16:43:25.660Z,31.80
2022-11-28T16:46:01.088Z,33.20
2022-11-28T16:48:31.649Z,35.73
2022-11-28T16:54:30.562Z,84.33
2022-11-28T16:57:10.335Z,38.43
2022-11-28T16:59:38.649Z,33.97
2022-11-28T17:02:15.855Z,202.73
2022-11-28T17:04:44.589Z,34.53
2022-11-28T17:07:14.621Z,41.67
2022-11-28T17:09:45.691Z,216.33
2022-11-28T17:12:19.755Z,29.47
2022-11-28T17:14:47.906Z,34.47
2022-11-28T17:17:19.231Z,33.00
2022-11-28T17:19:50.391Z,28.37
2022-11-28T17:22:24.161Z,68.07
2022-11-28T17:24:58.766Z,27.23
2022-11-28T17:27:26.987Z,631.40
2022-11-28T17:29:55.223Z,1377.40
2022-11-28T17:32:23.574Z,272.00
2022-11-28T17:34:51.828Z,760.83
2022-11-28T17:37:20.016Z,146.93
2022-11-28T17:40:02.052Z,33.70
2022-11-28T17:42:31.856Z,33.77
2022-11-28T17:45:00.825Z,27.67
2022-11-28T17:47:29.127Z,38.67
2022-11-28T17:50:00.160Z,198.13
2022-11-28T17:52:30.494Z,33.73
2022-11-28T17:55:07.074Z,31.93
2022-11-28T17:57:38.133Z,187.97
2022-11-28T18:00:09.646Z,286.53
2022-11-28T18:02:45.452Z,29.47
2022-11-28T18:05:13.738Z,59.07
2022-11-28T18:07:42.222Z,29.87
2022-11-28T18:10:13.069Z,32.97
2022-11-28T18:12:42.714Z,82.30
2022-11-28T18:15:11.480Z,55.27
2022-11-28T18:17:39.825Z,80.13
2022-11-28T18:20:09.786Z,56.23
2022-11-28T18:22:38.440Z,58.63
2022-11-28T18:25:08.727Z,52.00
2022-11-28T18:27:37.012Z,85.40
2022-11-28T18:30:08.685Z,83.50
2022-11-28T18:32:36.981Z,32.17
2022-11-28T18:35:06.861Z,1175.83
2022-11-28T18:37:35.064Z,30.40
2022-11-28T18:40:09.144Z,30.73
2022-11-28T18:42:38.968Z,31.40
2022-11-28T18:45:11.909Z,67.87
2022-11-28T18:47:40.531Z,32.00
2022-11-28T18:50:09.947Z,35.10
2022-11-28T18:52:38.413Z,28.07
2022-11-28T18:55:08.026Z,27.83
2022-11-28T18:57:37.409Z,30.90
2022-11-28T19:00:09.683Z,73.47
2022-11-28T19:02:37.885Z,32.80
2022-11-28T19:05:08.174Z,27.70
2022-11-28T19:07:36.437Z,28.07
2022-11-28T19:10:07.941Z,1089.97
2022-11-28T19:12:37.847Z,105.17
2022-11-28T19:15:07.527Z,1999.90
2022-11-28T19:17:37.149Z,39.80
2022-11-28T19:20:07.361Z,1999.90
2022-11-28T19:22:36.546Z,36.07
2022-11-28T19:25:06.354Z,37.13
2022-11-28T19:27:34.900Z,31.53
2022-11-28T19:30:03.568Z,77.63
2022-11-28T19:32:33.464Z,32.47
2022-11-28T19:35:03.052Z,794.33
2022-11-28T19:37:32.604Z,169.87
2022-11-28T19:40:02.829Z,53.43
2022-11-28T19:42:32.870Z,118.40
2022-11-28T19:45:01.266Z,96.97
2022-11-28T19:47:29.430Z,31.70
2022-11-28T19:49:57.599Z,293.17
2022-11-28T19:52:27.318Z,243.27
2022-11-28T19:54:55.539Z,91.23
2022-11-28T19:57:24.140Z,33.63
2022-11-28T19:59:53.808Z,148.90
2022-11-28T20:02:23.582Z,153.80
2022-11-28T20:04:51.875Z,285.90
2022-11-28T20:07:20.173Z,380.77
2022-11-28T20:09:50.713Z,747.17
2022-11-28T20:12:19.378Z,123.00
2022-11-28T20:14:47.577Z,25.23
2022-11-28T20:17:15.859Z,240.43
2022-11-28T20:19:45.986Z,595.43
2022-11-28T20:22:14.375Z,72.97
2022-11-28T20:24:42.566Z,36.47
2022-11-28T20:27:12.219Z,237.23
2022-11-28T20:29:40.602Z,37.70
2022-11-28T20:32:11.067Z,34.23
2022-11-28T20:34:39.347Z,29.03
2022-11-28T20:37:08.383Z,30.20
2022-11-28T20:39:36.614Z,30.70
2022-11-28T20:42:05.417Z,68.20
2022-11-28T20:44:35.572Z,113.70
2022-11-28T20:47:03.820Z,34.53
2022-11-28T20:49:33.586Z,29.70
2022-11-28T20:52:01.777Z,32.77
2022-11-28T20:54:30.059Z,32.80
2022-11-28T20:57:20.350Z,29.87
2022-11-28T20:59:47.841Z,34.27
2022-11-28T21:02:16.161Z,34.03
2022-11-28T21:04:44.532Z,29.47
2022-11-28T21:07:12.738Z,27.33
2022-11-28T21:09:40.992Z,246.93
2022-11-28T21:12:09.444Z,524.07
2022-11-28T21:14:37.686Z,1086.20
2022-11-28T21:17:08.604Z,54.20
2022-11-28T21:19:36.905Z,75.43
2022-11-28T21:22:06.720Z,27.63
2022-11-28T21:24:34.925Z,29.10
2022-11-28T21:27:03.107Z,32.60
2022-11-28T21:29:32.256Z,33.20
2022-11-28T21:32:00.513Z,24.13
2022-11-28T21:34:30.120Z,30.37
2022-11-28T21:36:58.368Z,31.37
2022-11-28T21:39:26.653Z,28.20
2022-11-28T21:41:54.889Z,25.47
2022-11-28T21:44:23.129Z,28.77
2022-11-28T21:46:51.508Z,25.70
2022-11-28T21:49:22.543Z,25.43
2022-11-28T21:51:54.313Z,28.30
2022-11-28T21:54:24.696Z,24.93
2022-11-28T21:56:53.766Z,24.97
2022-11-28T21:59:22.879Z,25.73
2022-11-28T22:01:51.407Z,55.90
2022-11-28T22:04:21.935Z,26.23
2022-11-28T22:06:51.380Z,29.90
2022-11-28T22:09:21.096Z,50.63
2022-11-28T22:11:49.313Z,25.43
2022-11-28T22:14:17.929Z,25.37
2022-11-28T22:16:46.118Z,23.40
2022-11-28T22:19:15.755Z,30.43
2022-11-28T22:21:52.027Z,23.50
2022-11-28T22:24:23.292Z,25.63
2022-11-28T22:26:51.792Z,28.30
2022-11-28T22:29:20.200Z,68.93
2022-11-28T22:31:50.029Z,24.73
2022-11-28T22:34:19.660Z,27.07
2022-11-28T22:36:47.894Z,28.83
2022-11-28T22:39:16.101Z,58.10
2022-11-28T22:41:45.696Z,25.23
2022-11-28T22:44:14.263Z,24.63
2022-11-28T22:46:42.550Z,22.63
2022-11-28T22:49:11.902Z,23.67
2022-11-28T22:51:40.873Z,27.47
2022-11-28T22:54:12.895Z,23.90
2022-11-28T22:56:41.450Z,22.67
2022-11-28T22:59:14.502Z,19.63
2022-11-28T23:01:43.598Z,23.17
2022-11-28T23:04:12.692Z,26.27
2022-11-28T23:06:40.972Z,25.50
2022-11-28T23:09:11.375Z,25.77
2022-11-28T23:11:41.091Z,23.43
2022-11-28T23:14:12.934Z,22.40
2022-11-28T23:16:43.940Z,23.70
2022-11-28T23:19:14.514Z,26.80
2022-11-28T23:21:44.704Z,34.43
2022-11-28T23:24:15.441Z,25.03
2022-11-28T23:26:45.541Z,23.13
2022-11-28T23:29:15.711Z,27.70
2022-11-28T23:31:47.045Z,24.50
2022-11-28T23:34:15.670Z,27.80
2022-11-28T23:36:46.256Z,30.87
2022-11-28T23:39:19.178Z,20.73
2022-11-28T23:41:49.487Z,35.60
2022-11-28T23:44:19.361Z,23.60
2022-11-28T23:46:49.489Z,21.53
2022-11-28T23:49:18.253Z,24.07
2022-11-28T23:51:46.431Z,25.17
2022-11-28T23:54:14.781Z,22.60
2022-11-28T23:56:44.684Z,23.57
2022-11-28T23:59:15.673Z,21.60
